• Join FlightAware (Why Join?)
  • Login
  • US Flag 
06:07PM EDT


 

Airport Tracker/Info


-or-


 

Live Flight TrackerFlight Track Log ✈ CTL14 ✈ 18-Apr-2013 ✈ KBMI - KPWK

Flight Track Log - Related Links

Times and Time Zones

All times are in EDT time to prevent confusion due to time zone crossing. See the CTL14 flight status page for this flight to view local times or setup timezone preferences in your user account.

Time Position Orientation Groundspeed Altitude Reporting Facility
EDT Latitude Longitude Course Direction KTS MPH feet Rate Location/Type
11:02PM 40.5475 -88.9261 North 107 123 3,600  Level Chicago Center
11:03PM 40.5814 -88.9047 26° Northeast 137 158 4,300 780 Climbing Chicago Center
11:04PM 40.6158 -88.8922 15° North 131 151 5,300 720 Climbing Chicago Center
11:05PM 40.6500 -88.8808 14° North 128 147 5,800 480 Climbing Chicago Center
11:06PM 40.6906 -88.8706 11° North 141 162 6,400 540 Climbing Chicago Center
11:07PM 40.7417 -88.8575 11° North 153 176 7,000 300 Climbing Chicago Center
11:08PM 40.7922 -88.8444 11° North 176 203 7,100  Climbing Chicago Center
11:09PM 40.8433 -88.8319 10° North 197 227 7,100  Level Chicago Center
11:10PM 40.9022 -88.8142 13° North 212 244 7,100  Level Chicago Center
11:11PM 40.9725 -88.7967 11° North 213 245 7,100  Level Chicago Center
11:12PM 41.0311 -88.7797 12° North 215 247 7,100  Level Chicago Center
11:13PM 41.0878 -88.7628 13° North 211 243 7,100 -180 Level Chicago Center
11:14PM 41.1461 -88.7456 13° North 214 246 6,800 -420 Descending Chicago Center
11:15PM 41.2106 -88.7256 13° North 229 264 6,300 -480 Descending Chicago Center
11:16PM 41.2731 -88.7081 12° North 231 266 5,900 -240 Descending Chicago Center
11:17PM 41.3322 -88.6914 12° North 222 255 5,900  Level Chicago Center
11:18PM 41.3903 -88.6736 13° North 216 249 5,900  Level Chicago Center
11:19PM 41.4603 -88.6556 11° North 214 246 6,000  Climbing Chicago Center
11:20PM 41.5172 -88.6286 20° North 220 253 5,900 -60 Descending Chicago Center
11:21PM 41.5731 -88.5978 22° Northeast 218 251 5,900  Level Chicago Center
11:22PM 41.6294 -88.5656 23° Northeast 219 252 5,900 -60 Level Chicago Center
11:23PM 41.6864 -88.5369 21° North 218 251 5,800 -360 Descending Chicago Center
11:24PM 41.7456 -88.5036 23° Northeast 227 261 5,200 -600 Descending Chicago Center
11:25PM 41.8047 -88.4747 20° North 227 261 4,600 -660 Descending Chicago Center
11:26PM 41.8611 -88.4456 21° North 224 258 3,900 -360 Descending Chicago Center
11:27PM 41.9131 -88.4169 22° Northeast 214 246 3,900  Level Chicago Center
11:28PM 41.9603 -88.3875 25° Northeast 201 231 3,900  Level Chicago Center
11:29PM 42.0214 -88.3586 19° North 196 226 4,000  Climbing Chicago Center
11:30PM 42.0681 -88.3164 34° Northeast 199 229 3,900 -420 Descending Chicago Center
11:31PM 42.1172 -88.2686 36° Northeast 209 241 3,200 -660 Descending Chicago Center
11:32PM 42.1686 -88.2183 36° Northeast 213 245 2,600 -600 Descending Chicago Center